TimeCST,TemperatureF,Dew PointF,Humidity,Sea Level PressureIn,VisibilityMPH,Wind Direction,Wind SpeedMPH,Gust SpeedMPH,PrecipitationIn,Events,Conditions,WindDirDegrees,DateUTC
12:53 AM,37.9,34.0,86,30.18,10.0,SSE,4.6,-,N/A,,Overcast,160,2012-11-08 06:53:00
1:53 AM,36.0,33.1,89,30.18,10.0,SSW,3.5,-,N/A,,Clear,200,2012-11-08 07:53:00
2:53 AM,35.1,33.1,92,30.19,8.0,South,3.5,-,N/A,,Clear,180,2012-11-08 08:53:00
3:53 AM,34.0,32.0,92,30.19,9.0,South,3.5,-,N/A,,Clear,190,2012-11-08 09:53:00
4:53 AM,34.0,32.0,92,30.19,8.0,South,3.5,-,N/A,,Clear,190,2012-11-08 10:53:00
5:53 AM,33.1,30.9,92,30.18,7.0,South,4.6,-,N/A,,Clear,180,2012-11-08 11:53:00
6:53 AM,33.1,30.9,92,30.18,6.0,South,4.6,-,N/A,,Clear,180,2012-11-08 12:53:00
7:53 AM,37.0,34.0,89,30.19,8.0,South,8.1,-,N/A,,Clear,170,2012-11-08 13:53:00
8:53 AM,42.1,35.1,76,30.19,9.0,South,11.5,-,N/A,,Clear,180,2012-11-08 14:53:00
9:53 AM,45.0,36.0,71,30.18,9.0,South,15.0,-,N/A,,Clear,170,2012-11-08 15:53:00
10:53 AM,48.0,37.0,66,30.17,10.0,SSW,16.1,20.7,N/A,,Clear,200,2012-11-08 16:53:00
11:53 AM,51.1,39.0,63,30.14,10.0,South,10.4,-,N/A,,Clear,180,2012-11-08 17:53:00
12:53 PM,52.0,39.0,61,30.10,10.0,South,12.7,-,N/A,,Clear,170,2012-11-08 18:53:00
1:53 PM,53.1,39.0,59,30.08,10.0,SSE,12.7,-,N/A,,Clear,150,2012-11-08 19:53:00
2:53 PM,54.0,37.9,55,30.06,10.0,SSE,10.4,-,N/A,,Clear,160,2012-11-08 20:53:00
3:53 PM,53.1,37.9,57,30.06,10.0,SSE,10.4,-,N/A,,Clear,160,2012-11-08 21:53:00
4:53 PM,50.0,37.9,63,30.05,10.0,SSE,9.2,-,N/A,,Clear,150,2012-11-08 22:53:00
5:53 PM,48.9,37.9,66,30.04,10.0,SSE,10.4,-,N/A,,Clear,150,2012-11-08 23:53:00
6:53 PM,48.0,37.9,68,30.03,10.0,SSE,10.4,-,N/A,,Clear,150,2012-11-09 00:53:00
7:53 PM,46.9,37.9,71,30.02,10.0,SSE,10.4,-,N/A,,Clear,160,2012-11-09 01:53:00
8:53 PM,46.9,37.9,71,30.02,10.0,SSE,8.1,-,N/A,,Clear,160,2012-11-09 02:53:00
9:53 PM,46.0,37.9,73,30.03,10.0,South,8.1,-,N/A,,Clear,180,2012-11-09 03:53:00
10:53 PM,45.0,37.9,76,30.03,10.0,SSE,5.8,-,N/A,,Clear,160,2012-11-09 04:53:00
11:53 PM,44.1,37.9,79,30.02,10.0,SSE,6.9,-,N/A,,Clear,150,2012-11-09 05:53:00